createdAt,value
2017-05-10T00:00:11.472Z,3.36
2017-05-10T00:02:39.814Z,2.50
2017-05-10T00:05:06.990Z,2.86
2017-05-10T00:07:53.420Z,2.50
2017-05-10T00:10:20.615Z,2.20
2017-05-10T00:12:47.949Z,2.88
2017-05-10T00:15:17.099Z,2.88
2017-05-10T00:17:44.279Z,4.06
2017-05-10T00:20:11.507Z,3.00
2017-05-10T00:22:38.809Z,2.64
2017-05-10T00:25:06.077Z,3.28
2017-05-10T00:27:33.252Z,3.34
2017-05-10T00:30:00.430Z,3.18
2017-05-10T00:32:29.276Z,3.22
2017-05-10T00:34:56.479Z,4.28
2017-05-10T00:37:23.666Z,2.44
2017-05-10T00:39:50.890Z,2.92
2017-05-10T00:42:18.088Z,2.70
2017-05-10T00:44:45.275Z,3.16
2017-05-10T00:47:13.494Z,2.72
2017-05-10T00:49:40.702Z,3.02
2017-05-10T00:52:07.877Z,2.90
2017-05-10T00:54:35.059Z,2.96
2017-05-10T00:57:02.262Z,2.84
2017-05-10T00:59:30.185Z,3.34
2017-05-10T01:01:57.406Z,2.98
2017-05-10T01:04:24.615Z,3.42
2017-05-10T01:06:51.805Z,3.22
2017-05-10T01:09:19.014Z,3.30
2017-05-10T01:11:46.191Z,2.78
2017-05-10T01:14:13.519Z,3.28
2017-05-10T01:16:41.644Z,2.88
2017-05-10T01:19:08.815Z,2.32
2017-05-10T01:21:36.002Z,2.86
2017-05-10T01:24:03.170Z,2.74
2017-05-10T01:26:30.360Z,2.80
2017-05-10T01:28:57.571Z,2.84
2017-05-10T01:31:24.845Z,3.20
2017-05-10T01:33:52.042Z,2.88
2017-05-10T01:36:19.287Z,2.78
2017-05-10T01:38:46.502Z,3.86
2017-05-10T01:41:13.691Z,3.08
2017-05-10T01:43:40.889Z,3.30
2017-05-10T01:46:08.110Z,3.42
2017-05-10T01:48:35.319Z,2.86
2017-05-10T01:51:02.521Z,3.50
2017-05-10T01:53:29.718Z,3.06
2017-05-10T01:55:56.908Z,3.66
2017-05-10T01:58:24.119Z,2.96
2017-05-10T02:00:51.319Z,4.68
2017-05-10T02:03:20.498Z,4.34
2017-05-10T02:05:47.678Z,4.60
2017-05-10T02:08:14.869Z,3.70
2017-05-10T02:10:42.084Z,3.92
2017-05-10T02:13:09.258Z,3.96
2017-05-10T02:15:36.490Z,3.80
2017-05-10T02:18:03.679Z,3.92
2017-05-10T02:20:30.885Z,4.38
2017-05-10T02:22:58.068Z,4.70
2017-05-10T02:25:25.256Z,5.10
2017-05-10T02:27:52.498Z,3.98
2017-05-10T02:30:20.642Z,4.56
2017-05-10T02:32:48.617Z,3.82
2017-05-10T02:35:15.854Z,3.64
2017-05-10T02:37:44.882Z,5.00
2017-05-10T02:40:16.422Z,4.00
2017-05-10T02:42:43.609Z,3.96
2017-05-10T02:45:10.815Z,3.70
2017-05-10T02:47:38.938Z,3.30
2017-05-10T02:50:06.111Z,3.50
2017-05-10T02:52:33.338Z,3.54
2017-05-10T02:55:00.559Z,4.38
2017-05-10T02:57:29.702Z,3.80
2017-05-10T02:59:56.995Z,4.44
2017-05-10T03:02:24.259Z,3.32
2017-05-10T03:04:51.483Z,3.20
2017-05-10T03:07:18.690Z,3.04
2017-05-10T03:09:45.885Z,3.36
2017-05-10T03:12:13.083Z,3.70
2017-05-10T03:14:44.859Z,4.26
2017-05-10T03:17:12.254Z,3.30
2017-05-10T03:19:39.458Z,3.44
2017-05-10T03:22:06.650Z,2.68
2017-05-10T03:24:33.842Z,3.02
2017-05-10T03:27:01.860Z,3.46
2017-05-10T03:29:32.709Z,2.80
2017-05-10T03:32:00.796Z,3.08
2017-05-10T03:37:07.361Z,2.96
2017-05-10T03:39:38.383Z,2.34
2017-05-10T03:42:05.585Z,4.24
2017-05-10T03:44:32.813Z,3.48
2017-05-10T03:47:00.064Z,4.34
2017-05-10T03:49:28.075Z,2.58
2017-05-10T03:51:55.292Z,2.90
2017-05-10T03:54:26.103Z,3.40
2017-05-10T03:56:54.274Z,3.62
2017-05-10T03:59:21.490Z,3.52
2017-05-10T04:01:49.432Z,3.30
2017-05-10T04:04:17.417Z,2.82
2017-05-10T04:06:44.603Z,3.00
2017-05-10T04:09:11.793Z,3.34
2017-05-10T04:11:39.314Z,3.62
2017-05-10T04:14:07.182Z,3.70
2017-05-10T04:16:35.115Z,2.90
2017-05-10T04:19:07.131Z,3.34
2017-05-10T04:21:34.363Z,2.56
2017-05-10T04:24:01.592Z,3.10
2017-05-10T04:26:28.771Z,2.70
2017-05-10T04:28:56.603Z,5.84
2017-05-10T04:31:23.786Z,3.84
2017-05-10T04:33:50.976Z,4.22
2017-05-10T04:36:18.162Z,2.82
2017-05-10T04:38:46.368Z,2.82
2017-05-10T04:41:14.574Z,2.28
2017-05-10T04:43:41.753Z,3.08
2017-05-10T04:46:13.555Z,7.94
2017-05-10T04:48:41.198Z,3.58
2017-05-10T04:51:09.331Z,3.80
2017-05-10T04:53:36.525Z,3.74
2017-05-10T04:56:03.714Z,4.00
2017-05-10T04:58:30.926Z,4.06
2017-05-10T05:00:58.114Z,3.68
2017-05-10T05:03:25.332Z,4.30
2017-05-10T05:05:52.514Z,3.04
2017-05-10T05:08:19.751Z,2.82
2017-05-10T05:10:46.989Z,3.22
2017-05-10T05:13:14.171Z,3.80
2017-05-10T05:15:41.388Z,3.94
2017-05-10T05:18:08.576Z,3.64
2017-05-10T05:20:37.757Z,4.28
2017-05-10T05:23:04.956Z,5.06
2017-05-10T05:25:32.133Z,5.00
2017-05-10T05:27:59.336Z,4.06
2017-05-10T05:30:26.524Z,4.40
2017-05-10T05:32:53.717Z,4.40
2017-05-10T05:35:20.882Z,4.64
2017-05-10T05:37:48.151Z,4.08
2017-05-10T05:40:15.382Z,5.30
2017-05-10T05:42:42.542Z,6.12
2017-05-10T05:48:08.963Z,4.80
2017-05-10T05:50:36.190Z,4.80
2017-05-10T05:53:03.372Z,5.62
2017-05-10T05:55:30.594Z,5.18
2017-05-10T05:57:57.810Z,4.96
2017-05-10T06:00:25.005Z,4.70
2017-05-10T06:02:52.201Z,4.16
2017-05-10T06:05:19.419Z,4.44
2017-05-10T06:07:46.615Z,4.62
2017-05-10T06:10:13.809Z,3.34
2017-05-10T06:12:41.018Z,5.20
2017-05-10T06:15:08.206Z,5.44
2017-05-10T06:17:35.467Z,4.88
2017-05-10T06:20:02.667Z,4.40
2017-05-10T06:22:29.844Z,4.98
2017-05-10T06:24:57.070Z,4.40
2017-05-10T06:27:24.272Z,4.58
2017-05-10T06:29:51.494Z,5.14
2017-05-10T06:32:18.682Z,5.50
2017-05-10T06:34:46.058Z,4.40
2017-05-10T06:37:13.414Z,5.18
2017-05-10T06:39:40.605Z,4.92
2017-05-10T06:42:07.841Z,4.12
2017-05-10T06:44:35.050Z,4.40
2017-05-10T06:47:02.310Z,4.48
2017-05-10T06:49:29.524Z,5.90
2017-05-10T06:51:56.734Z,3.34
2017-05-10T06:54:24.096Z,4.10
2017-05-10T06:56:51.335Z,5.30
2017-05-10T06:59:18.560Z,3.80
2017-05-10T07:01:45.749Z,4.20
2017-05-10T07:04:13.046Z,5.52
2017-05-10T07:06:40.371Z,4.58
2017-05-10T07:09:07.561Z,4.38
2017-05-10T07:11:34.895Z,4.28
2017-05-10T07:14:02.675Z,3.48
2017-05-10T07:16:29.892Z,4.04
2017-05-10T07:18:57.162Z,4.44
2017-05-10T07:21:24.355Z,5.40
2017-05-10T07:23:51.546Z,3.86
2017-05-10T07:26:18.771Z,4.28
2017-05-10T07:28:46.012Z,3.50
2017-05-10T07:31:13.210Z,4.04
2017-05-10T07:33:40.391Z,4.00
2017-05-10T07:36:07.585Z,3.58
2017-05-10T07:38:34.788Z,2.74
2017-05-10T07:41:02.004Z,2.38
2017-05-10T07:43:29.195Z,2.54
2017-05-10T07:45:56.474Z,2.66
2017-05-10T07:48:23.692Z,3.26
2017-05-10T07:50:50.871Z,3.50
2017-05-10T07:53:18.087Z,3.54
2017-05-10T07:55:45.268Z,3.18
2017-05-10T07:58:12.482Z,2.80
2017-05-10T08:00:39.669Z,2.58
2017-05-10T08:03:06.895Z,3.04
2017-05-10T08:05:34.123Z,2.42
2017-05-10T08:08:01.317Z,2.60
2017-05-10T08:10:28.608Z,3.18
2017-05-10T08:12:55.907Z,3.10
2017-05-10T08:15:23.115Z,2.10
2017-05-10T08:17:50.328Z,3.04
2017-05-10T08:20:17.509Z,2.24
2017-05-10T08:22:44.800Z,2.32
2017-05-10T08:25:12.030Z,2.70
2017-05-10T08:27:39.255Z,2.30
2017-05-10T08:30:09.427Z,3.04
2017-05-10T08:32:39.170Z,3.22
2017-05-10T08:35:06.597Z,2.02
2017-05-10T08:37:36.719Z,2.12
2017-05-10T08:40:04.649Z,3.24
2017-05-10T08:42:32.709Z,3.64
2017-05-10T08:44:59.917Z,3.70
2017-05-10T08:47:27.107Z,2.90
2017-05-10T08:49:54.331Z,2.44
2017-05-10T08:52:25.404Z,2.36
2017-05-10T08:54:53.396Z,2.12
2017-05-10T08:59:59.601Z,2.90
2017-05-10T09:02:27.482Z,2.56
2017-05-10T09:04:55.588Z,1.80
2017-05-10T09:07:22.858Z,1.82
2017-05-10T09:09:51.768Z,1.62
2017-05-10T09:12:20.089Z,1.50
2017-05-10T09:14:50.850Z,1.90
2017-05-10T09:17:18.868Z,2.22
2017-05-10T09:19:46.679Z,1.66
2017-05-10T09:22:14.585Z,1.80
2017-05-10T09:24:43.787Z,4.40
2017-05-10T09:33:34.047Z,1.90
2017-05-10T09:36:01.260Z,2.18
2017-05-10T09:38:28.443Z,2.02
2017-05-10T09:40:55.661Z,2.00
2017-05-10T09:43:22.885Z,1.94
2017-05-10T09:45:50.132Z,1.74
2017-05-10T09:48:18.309Z,2.04
2017-05-10T09:53:55.339Z,1.48
2017-05-10T09:56:25.071Z,1.64
2017-05-10T09:58:52.290Z,1.54
2017-05-10T10:01:19.595Z,2.50
2017-05-10T10:03:46.813Z,1.54
2017-05-10T10:06:26.553Z,1.92
2017-05-10T10:08:53.807Z,1.50
2017-05-10T10:11:21.026Z,1.36
2017-05-10T10:13:48.232Z,1.72
2017-05-10T10:16:15.499Z,1.60
2017-05-10T10:18:42.730Z,1.72
2017-05-10T10:21:09.987Z,2.08
2017-05-10T10:23:39.215Z,1.56
2017-05-10T10:26:06.424Z,1.62
2017-05-10T10:28:33.640Z,1.36
2017-05-10T10:31:00.803Z,1.88
2017-05-10T10:33:28.330Z,2.34
2017-05-10T10:35:55.499Z,1.36
2017-05-10T10:38:22.684Z,1.04
2017-05-10T10:40:49.912Z,2.20
2017-05-10T10:43:17.109Z,1.70
2017-05-10T10:45:44.334Z,1.82
2017-05-10T10:48:11.515Z,1.82
2017-05-10T10:50:38.747Z,2.32
2017-05-10T10:53:05.939Z,2.68
2017-05-10T10:55:33.144Z,2.50
2017-05-10T10:58:00.383Z,2.36
2017-05-10T11:00:27.562Z,1.78
2017-05-10T11:03:02.941Z,1.96
2017-05-10T11:05:30.785Z,2.04
2017-05-10T11:07:58.033Z,2.50
2017-05-10T11:10:25.245Z,1.74
2017-05-10T11:12:52.522Z,2.94
2017-05-10T11:15:19.731Z,3.08
2017-05-10T11:17:46.900Z,2.38
2017-05-10T11:20:14.144Z,1.90
2017-05-10T11:22:41.335Z,2.08
2017-05-10T11:25:08.533Z,1.96
2017-05-10T11:27:35.823Z,1.74
2017-05-10T11:30:03.129Z,3.60
2017-05-10T11:32:31.326Z,2.08
2017-05-10T11:34:58.513Z,1.38
2017-05-10T11:37:25.720Z,1.12
2017-05-10T11:39:52.886Z,1.04
2017-05-10T11:42:20.187Z,1.80
2017-05-10T11:44:47.458Z,1.54
2017-05-10T11:47:15.757Z,0.90
2017-05-10T11:49:44.951Z,0.74
2017-05-10T11:52:12.221Z,0.80
2017-05-10T11:54:39.442Z,0.98
2017-05-10T11:57:06.626Z,1.24
2017-05-10T11:59:34.001Z,1.54
2017-05-10T12:02:01.198Z,1.30
2017-05-10T12:04:28.379Z,1.90
2017-05-10T12:06:55.610Z,1.90
2017-05-10T12:09:23.743Z,1.46
2017-05-10T12:11:50.953Z,1.28
2017-05-10T12:14:18.250Z,1.60
2017-05-10T12:16:45.462Z,1.20
2017-05-10T12:19:12.738Z,1.38
2017-05-10T12:21:39.988Z,1.68
2017-05-10T12:24:07.263Z,1.22
2017-05-10T12:26:34.500Z,1.00
2017-05-10T12:29:01.704Z,1.10
2017-05-10T12:31:28.894Z,1.26
2017-05-10T12:33:56.126Z,1.10
2017-05-10T12:36:23.311Z,1.20
2017-05-10T12:38:50.577Z,1.44
2017-05-10T12:41:17.799Z,2.60
2017-05-10T12:43:44.999Z,1.54
2017-05-10T12:46:12.230Z,1.58
2017-05-10T12:48:39.538Z,1.28
2017-05-10T12:51:06.802Z,1.88
2017-05-10T12:53:34.092Z,2.46
2017-05-10T12:56:01.235Z,2.00
2017-05-10T12:58:28.478Z,1.80
2017-05-10T13:00:55.710Z,1.00
2017-05-10T13:03:23.010Z,1.04
2017-05-10T13:05:50.179Z,1.12
2017-05-10T13:08:18.359Z,1.34
2017-05-10T13:10:45.549Z,1.50
2017-05-10T13:13:12.717Z,1.82
2017-05-10T13:15:39.945Z,1.10
2017-05-10T13:18:07.254Z,1.78
2017-05-10T13:20:34.503Z,1.94
2017-05-10T13:23:01.703Z,1.54
2017-05-10T13:25:28.890Z,1.70
2017-05-10T13:27:56.095Z,1.40
2017-05-10T13:30:23.352Z,1.56
2017-05-10T13:32:51.560Z,1.92
2017-05-10T13:35:18.733Z,2.52
2017-05-10T13:37:46.038Z,1.96
2017-05-10T13:40:14.038Z,2.44
2017-05-10T13:42:41.226Z,2.06
2017-05-10T13:45:08.474Z,2.40
2017-05-10T13:47:35.751Z,2.54
2017-05-10T13:50:02.933Z,2.06
2017-05-10T13:52:30.125Z,2.20
2017-05-10T13:54:57.364Z,1.76
2017-05-10T13:57:24.607Z,1.62
2017-05-10T13:59:51.787Z,1.98
2017-05-10T14:02:19.067Z,2.24
2017-05-10T14:04:46.278Z,1.70
2017-05-10T14:07:13.472Z,2.02
2017-05-10T14:09:40.735Z,2.18
2017-05-10T14:12:16.986Z,1.72
2017-05-10T14:14:44.238Z,2.16
2017-05-10T14:17:11.434Z,1.92
2017-05-10T14:19:38.633Z,2.24
2017-05-10T14:22:05.826Z,1.56
2017-05-10T14:24:33.223Z,1.70
2017-05-10T14:27:00.905Z,1.62
2017-05-10T14:29:28.122Z,2.30
2017-05-10T14:31:55.311Z,2.72
2017-05-10T14:34:23.320Z,1.92
2017-05-10T14:36:51.609Z,1.68
2017-05-10T14:39:18.790Z,1.88
2017-05-10T14:41:46.047Z,2.00
2017-05-10T14:44:13.229Z,1.82
2017-05-10T14:46:40.414Z,2.50
2017-05-10T14:49:07.618Z,2.18
2017-05-10T14:51:34.923Z,2.14
2017-05-10T14:54:03.122Z,1.98
2017-05-10T14:56:30.280Z,2.20
2017-05-10T14:58:57.938Z,1.96
2017-05-10T15:01:25.199Z,2.00
2017-05-10T15:03:53.368Z,2.00
2017-05-10T15:06:20.595Z,1.94
2017-05-10T15:08:47.775Z,2.46
2017-05-10T15:11:14.951Z,2.04
2017-05-10T15:13:42.165Z,3.02
2017-05-10T15:16:09.402Z,2.60
2017-05-10T15:18:36.625Z,1.80
2017-05-10T15:21:03.879Z,1.96
2017-05-10T15:23:31.056Z,1.90
2017-05-10T15:25:58.601Z,1.78
2017-05-10T15:28:26.321Z,2.82
2017-05-10T15:31:13.946Z,1.96
2017-05-10T15:33:48.179Z,2.16
2017-05-10T15:36:18.270Z,2.26
2017-05-10T15:38:45.543Z,3.14
2017-05-10T15:41:17.151Z,1.94
2017-05-10T15:43:46.684Z,2.40
2017-05-10T15:49:13.494Z,1.84
2017-05-10T15:59:59.021Z,1.90
2017-05-10T16:05:02.099Z,2.88
2017-05-10T16:07:30.897Z,2.42
2017-05-10T16:10:07.782Z,2.60
2017-05-10T16:12:47.301Z,2.20
2017-05-10T16:15:14.522Z,2.20
2017-05-10T16:17:41.894Z,2.06
2017-05-10T16:20:09.113Z,2.26
2017-05-10T16:22:36.336Z,2.14
2017-05-10T16:25:03.552Z,2.50
2017-05-10T16:27:31.690Z,3.18
2017-05-10T16:30:06.013Z,3.54
2017-05-10T16:32:33.608Z,4.28
2017-05-10T16:35:01.489Z,2.40
2017-05-10T16:37:29.942Z,2.86
2017-05-10T16:39:57.533Z,3.20
2017-05-10T16:42:24.757Z,2.34
2017-05-10T16:44:51.930Z,2.90
2017-05-10T16:47:19.128Z,3.02
2017-05-10T16:49:46.333Z,3.42
2017-05-10T16:52:14.071Z,3.30
2017-05-10T16:54:41.309Z,2.20
2017-05-10T16:57:08.512Z,3.34
2017-05-10T16:59:36.586Z,2.42
2017-05-10T17:02:04.206Z,2.58
2017-05-10T17:04:32.294Z,2.46
2017-05-10T17:06:59.751Z,3.18
2017-05-10T17:09:28.207Z,2.54
2017-05-10T17:11:56.389Z,3.42
2017-05-10T17:14:24.617Z,3.10
2017-05-10T17:16:52.096Z,3.00
2017-05-10T17:19:19.648Z,3.10
2017-05-10T17:21:47.150Z,3.30
2017-05-10T17:24:14.731Z,3.34
2017-05-10T17:26:43.206Z,2.86
2017-05-10T17:29:10.722Z,2.90
2017-05-10T17:31:38.459Z,3.32
2017-05-10T17:34:05.959Z,3.20
2017-05-10T17:36:34.176Z,3.26
2017-05-10T17:39:01.704Z,3.02
2017-05-10T17:41:29.992Z,2.98
2017-05-10T17:43:57.546Z,3.42
2017-05-10T17:46:25.047Z,2.86
2017-05-10T17:48:52.621Z,2.54
2017-05-10T17:51:20.139Z,2.90
2017-05-10T17:53:47.661Z,2.60
2017-05-10T17:56:16.038Z,3.04
2017-05-10T17:58:43.729Z,2.70
2017-05-10T18:01:11.290Z,3.40
2017-05-10T18:03:39.839Z,3.56
2017-05-10T18:06:07.323Z,2.88
2017-05-10T18:08:34.912Z,2.72
2017-05-10T18:11:03.138Z,2.46
2017-05-10T18:13:31.625Z,2.90
2017-05-10T18:15:59.174Z,2.58
2017-05-10T18:18:26.729Z,2.56
2017-05-10T18:20:54.406Z,2.98
2017-05-10T18:23:21.907Z,2.78
2017-05-10T18:25:49.453Z,2.98
2017-05-10T18:28:17.023Z,2.58
2017-05-10T18:30:44.571Z,3.06
2017-05-10T18:33:12.122Z,3.14
2017-05-10T18:38:37.012Z,2.80
2017-05-10T18:41:05.573Z,2.92
2017-05-10T18:43:34.003Z,3.78
2017-05-10T18:46:02.272Z,3.96
2017-05-10T18:48:29.838Z,3.12
2017-05-10T18:50:57.398Z,3.12
2017-05-10T18:53:26.186Z,2.70
2017-05-10T18:55:53.891Z,3.04
2017-05-10T18:58:21.455Z,3.26
2017-05-10T19:00:50.936Z,3.44
2017-05-10T19:03:18.487Z,3.32
2017-05-10T19:05:45.997Z,3.78
2017-05-10T19:08:13.556Z,3.98
2017-05-10T19:10:42.353Z,3.68
2017-05-10T19:13:13.201Z,3.78
2017-05-10T19:15:40.472Z,4.56
2017-05-10T19:20:57.919Z,5.70
2017-05-10T19:23:25.195Z,4.90
2017-05-10T19:25:54.047Z,4.34
2017-05-10T19:28:21.276Z,4.44
2017-05-10T19:30:48.478Z,4.32
2017-05-10T19:33:17.550Z,4.90
2017-05-10T19:35:45.705Z,4.62
2017-05-10T19:38:12.866Z,4.80
2017-05-10T19:40:40.999Z,4.70
2017-05-10T19:43:08.181Z,4.62
2017-05-10T19:45:35.400Z,4.30
2017-05-10T19:48:02.583Z,5.26
2017-05-10T19:50:29.806Z,4.58
2017-05-10T19:52:56.987Z,4.62
2017-05-10T19:55:24.178Z,5.76
2017-05-10T19:57:52.270Z,4.82
2017-05-10T20:00:19.487Z,3.92
2017-05-10T20:02:47.691Z,4.76
2017-05-10T20:05:14.926Z,5.52
2017-05-10T20:07:42.120Z,5.20
2017-05-10T20:10:09.339Z,5.24
2017-05-10T20:12:43.655Z,5.42
2017-05-10T20:15:13.790Z,5.72
2017-05-10T20:17:41.786Z,5.12
2017-05-10T20:20:09.748Z,5.44
2017-05-10T20:22:37.333Z,5.36
2017-05-10T20:25:13.544Z,4.90
2017-05-10T20:27:49.522Z,5.68
2017-05-10T20:33:06.080Z,5.30
2017-05-10T20:35:43.034Z,5.60
2017-05-10T20:38:14.799Z,5.02
2017-05-10T20:43:25.093Z,4.50
2017-05-10T20:48:37.997Z,5.50
2017-05-10T20:51:09.053Z,5.90
2017-05-10T20:53:40.833Z,5.64
2017-05-10T20:56:08.102Z,5.50
2017-05-10T20:58:36.318Z,5.20
2017-05-10T21:01:04.726Z,5.84
2017-05-10T21:03:37.517Z,5.30
2017-05-10T21:06:04.717Z,6.44
2017-05-10T21:08:31.903Z,7.32
2017-05-10T21:10:59.122Z,5.80
2017-05-10T21:13:28.956Z,5.62
2017-05-10T21:15:58.313Z,5.86
2017-05-10T21:18:26.041Z,6.02
2017-05-10T21:20:53.209Z,5.74
2017-05-10T21:23:20.391Z,5.60
2017-05-10T21:25:49.246Z,5.82
2017-05-10T21:28:16.426Z,6.16
2017-05-10T21:30:46.802Z,6.40
2017-05-10T21:33:15.803Z,4.88
2017-05-10T21:35:42.990Z,5.36
2017-05-10T21:38:11.030Z,5.94
2017-05-10T21:40:41.678Z,5.68
2017-05-10T21:43:08.880Z,6.04
2017-05-10T21:45:36.063Z,4.54
2017-05-10T21:48:04.039Z,6.76
2017-05-10T21:50:32.235Z,6.26
2017-05-10T21:53:00.336Z,5.92
2017-05-10T21:55:28.541Z,5.86
2017-05-10T21:57:57.472Z,5.38
2017-05-10T22:00:24.680Z,4.86
2017-05-10T22:02:54.491Z,5.70
2017-05-10T22:05:21.666Z,6.18
2017-05-10T22:07:49.050Z,5.34
2017-05-10T22:10:22.772Z,5.84
2017-05-10T22:12:53.586Z,6.22
2017-05-10T22:15:20.772Z,6.06
2017-05-10T22:17:50.558Z,6.10
2017-05-10T22:20:17.747Z,5.82
2017-05-10T22:22:45.469Z,6.70
2017-05-10T22:25:12.715Z,6.30
2017-05-10T22:27:40.723Z,6.68
2017-05-10T22:30:08.875Z,5.72
2017-05-10T22:32:37.339Z,5.98
2017-05-10T22:35:05.737Z,6.42
2017-05-10T22:37:32.947Z,6.58
2017-05-10T22:40:00.612Z,6.24
2017-05-10T22:42:28.723Z,6.18
2017-05-10T22:44:55.947Z,6.06
2017-05-10T22:47:24.078Z,6.32
2017-05-10T22:49:52.148Z,5.44
2017-05-10T22:52:21.233Z,6.62
2017-05-10T22:54:49.358Z,6.24
2017-05-10T22:57:18.982Z,5.52
2017-05-10T22:59:48.473Z,6.62
2017-05-10T23:02:15.673Z,5.96
2017-05-10T23:04:44.466Z,6.74
2017-05-10T23:07:11.653Z,5.86
2017-05-10T23:09:39.449Z,6.30
2017-05-10T23:12:06.626Z,5.90
2017-05-10T23:14:36.948Z,6.50
2017-05-10T23:17:04.133Z,6.62
2017-05-10T23:19:31.327Z,7.02
2017-05-10T23:21:58.528Z,7.50
2017-05-10T23:24:26.371Z,7.10
2017-05-10T23:26:54.548Z,7.30
2017-05-10T23:29:30.156Z,7.50
2017-05-10T23:31:57.365Z,8.04
2017-05-10T23:34:24.574Z,7.88
2017-05-10T23:36:51.775Z,7.48
2017-05-10T23:39:18.976Z,9.12
2017-05-10T23:41:46.175Z,8.06
2017-05-10T23:44:19.521Z,7.34
2017-05-10T23:46:47.306Z,7.84
2017-05-10T23:49:14.465Z,8.22
2017-05-10T23:51:41.676Z,8.68
2017-05-10T23:54:08.859Z,7.60
2017-05-10T23:56:36.082Z,7.72
2017-05-10T23:59:03.269Z,7.92
